createdAt,value
2022-12-13T00:00:40.760Z,100849.47
2022-12-13T00:01:45.271Z,100854.59
2022-12-13T00:02:47.421Z,100845.94
2022-12-13T00:03:50.720Z,100848.47
2022-12-13T00:04:53.744Z,100857.94
2022-12-13T00:05:55.852Z,100847.50
2022-12-13T00:06:58.884Z,100847.41
2022-12-13T00:08:01.877Z,100849.91
2022-12-13T00:09:07.253Z,100848.97
2022-12-13T00:10:09.683Z,100845.44
2022-12-13T00:11:14.787Z,100849.69
2022-12-13T00:12:17.930Z,100840.00
2022-12-13T00:13:19.929Z,100858.16
2022-12-13T00:14:23.095Z,100845.03
2022-12-13T00:15:25.096Z,100843.25
2022-12-13T00:16:28.650Z,100846.59
2022-12-13T00:17:32.095Z,100845.63
2022-12-13T00:18:35.309Z,100846.50
2022-12-13T00:19:38.647Z,100845.56
2022-12-13T00:20:40.710Z,100845.56
2022-12-13T00:21:43.863Z,100841.16
2022-12-13T00:22:45.900Z,100840.25
2022-12-13T00:23:49.431Z,100816.13
2022-12-13T00:24:55.088Z,100842.75
2022-12-13T00:26:02.661Z,100840.94
2022-12-13T00:27:06.019Z,100841.69
2022-12-13T00:28:08.591Z,100842.53
2022-12-13T00:29:12.255Z,100847.75
2022-12-13T00:30:14.580Z,100846.78
2022-12-13T00:32:41.603Z,100835.44
2022-12-13T00:33:43.774Z,100831.16
2022-12-13T00:34:46.948Z,100838.78
2022-12-13T00:35:49.114Z,100837.09
2022-12-13T00:36:52.299Z,100837.00
2022-12-13T00:37:54.444Z,100837.94
2022-12-13T00:39:03.433Z,100832.75
2022-12-13T00:40:08.362Z,100838.78
2022-12-13T00:41:13.896Z,100828.56
2022-12-13T00:42:17.080Z,100830.97
2022-12-13T00:43:19.286Z,100830.25
2022-12-13T00:44:22.500Z,100831.91
2022-12-13T00:45:25.646Z,100831.91
2022-12-13T00:46:28.680Z,100825.03
2022-12-13T00:47:31.999Z,100827.63
2022-12-13T00:48:34.130Z,100825.03
2022-12-13T00:49:37.321Z,100822.53
2022-12-13T00:50:39.518Z,100817.31
2022-12-13T00:51:42.838Z,100817.31
2022-12-13T00:52:46.200Z,100818.34
2022-12-13T00:53:48.510Z,100821.06
2022-12-13T00:54:51.659Z,100821.91
2022-12-13T00:55:55.183Z,100822.81
2022-12-13T00:56:58.398Z,100822.81
2022-12-13T00:58:00.628Z,100825.41
2022-12-13T00:59:04.658Z,100819.50
2022-12-13T01:00:09.322Z,100824.78
2022-12-13T01:01:13.644Z,100821.38
2022-12-13T01:02:16.851Z,100819.69
2022-12-13T01:03:25.446Z,100820.63
2022-12-13T01:04:28.685Z,100823.34
2022-12-13T01:06:04.152Z,100820.75
2022-12-13T01:06:55.252Z,100822.50
2022-12-13T01:07:57.939Z,100822.50
2022-12-13T01:09:01.843Z,100821.66
2022-12-13T01:10:07.255Z,100815.53
2022-12-13T01:11:11.672Z,100821.59
2022-12-13T01:12:15.334Z,100818.97
2022-12-13T01:13:17.589Z,100812.91
2022-12-13T01:14:20.947Z,100812.81
2022-12-13T01:15:23.237Z,100808.34
2022-12-13T01:16:26.592Z,100812.72
2022-12-13T01:17:30.732Z,100803.13
2022-12-13T01:18:34.047Z,100810.94
2022-12-13T01:19:37.294Z,100802.28
2022-12-13T01:20:39.527Z,100803.03
2022-12-13T01:21:42.812Z,100818.66
2022-12-13T01:22:46.067Z,100812.50
2022-12-13T01:23:48.279Z,100806.47
2022-12-13T01:24:51.426Z,100814.19
2022-12-13T01:25:53.722Z,100804.69
2022-12-13T01:26:58.333Z,100808.97
2022-12-13T01:28:00.537Z,100810.63
2022-12-13T01:29:05.353Z,100807.19
2022-12-13T01:30:08.187Z,100804.47
2022-12-13T01:31:13.100Z,100804.47
2022-12-13T01:32:16.297Z,100803.66
2022-12-13T01:33:18.878Z,100810.41
2022-12-13T01:34:26.304Z,100807.81
2022-12-13T01:35:29.004Z,100813.75
2022-12-13T01:36:32.157Z,100817.09
2022-12-13T01:37:40.474Z,100813.53
2022-12-13T01:38:43.884Z,100811.03
2022-12-13T01:39:47.056Z,100814.16
2022-12-13T01:40:57.767Z,100802.81
2022-12-13T01:42:05.435Z,100812.19
2022-12-13T01:43:14.895Z,100805.22
2022-12-13T01:44:55.048Z,100804.16
2022-12-13T01:45:58.273Z,100806.66
2022-12-13T01:47:01.142Z,100804.88
2022-12-13T01:48:07.782Z,100803.94
2022-12-13T01:49:20.066Z,100798.72
2022-12-13T01:50:27.305Z,100801.25
2022-12-13T01:51:35.300Z,100808.13
2022-12-13T01:52:38.566Z,100801.16
2022-12-13T01:53:44.862Z,100799.34
2022-12-13T01:54:51.083Z,100809.66
2022-12-13T01:55:58.262Z,100798.31
2022-12-13T01:57:03.476Z,100802.59
2022-12-13T01:58:08.071Z,100804.16
2022-12-13T01:59:11.772Z,100804.97
2022-12-13T02:00:16.714Z,100809.38
2022-12-13T02:01:19.221Z,100798.72
2022-12-13T02:02:23.242Z,100803.94
2022-12-13T02:03:26.537Z,100798.72
2022-12-13T02:04:32.106Z,100804.69
2022-12-13T02:05:38.314Z,100797.06
2022-12-13T02:06:44.640Z,100795.91
2022-12-13T02:07:47.880Z,100798.50
2022-12-13T02:08:51.086Z,100797.59
2022-12-13T02:09:56.361Z,100793.19
2022-12-13T02:11:00.579Z,100799.47
2022-12-13T02:12:04.958Z,100786.63
2022-12-13T02:13:09.546Z,100789.84
2022-12-13T02:14:12.718Z,100795.91
2022-12-13T02:15:17.699Z,100793.28
2022-12-13T02:16:38.887Z,100799.47
2022-12-13T02:17:58.221Z,100790.69
2022-12-13T02:19:38.462Z,100789.75
2022-12-13T02:21:18.172Z,100782.75
2022-12-13T02:22:38.863Z,100788.59
2022-12-13T02:23:56.725Z,100790.16
2022-12-13T02:25:20.741Z,100787.44
2022-12-13T02:26:57.917Z,100787.44
2022-12-13T02:28:31.845Z,100782.97
2022-12-13T02:30:04.029Z,100781.91
2022-12-13T02:31:13.744Z,100781.66
2022-12-13T02:32:22.150Z,100778.97
2022-12-13T02:33:39.241Z,100781.38
2022-12-13T02:34:46.026Z,100775.94
2022-12-13T02:35:54.306Z,100778.31
2022-12-13T02:37:03.197Z,100771.94
2022-12-13T02:38:13.024Z,100770.03
2022-12-13T02:39:30.636Z,100769.84
2022-12-13T02:40:39.614Z,100766.06
2022-12-13T02:41:49.945Z,100766.69
2022-12-13T02:43:00.307Z,100767.28
2022-12-13T02:44:21.654Z,100760.19
2022-12-13T02:45:30.440Z,100773.13
2022-12-13T02:46:40.838Z,100768.53
2022-12-13T02:47:44.356Z,100764.84
2022-12-13T02:48:51.195Z,100757.13
2022-12-13T02:49:58.200Z,100765.47
2022-12-13T02:51:04.319Z,100774.03
2022-12-13T02:52:08.316Z,100773.06
2022-12-13T02:53:13.963Z,100764.31
2022-12-13T02:54:16.111Z,100765.22
2022-12-13T02:55:21.145Z,100761.69
2022-12-13T02:56:27.129Z,100761.69
2022-12-13T02:57:31.551Z,100766.19
2022-12-13T02:58:37.678Z,100758.59
2022-12-13T02:59:40.652Z,100754.91
2022-12-13T03:00:55.512Z,100762.84
2022-12-13T03:02:12.522Z,100763.81
2022-12-13T03:03:34.199Z,100771.63
2022-12-13T03:05:06.610Z,100770.78
2022-12-13T03:06:34.157Z,100765.69
2022-12-13T03:07:41.325Z,100769.94
2022-12-13T03:08:53.266Z,100770.06
2022-12-13T03:10:02.095Z,100762.34
2022-12-13T03:11:08.535Z,100753.59
2022-12-13T03:12:40.865Z,100757.84
2022-12-13T03:13:52.070Z,100764.72
2022-12-13T03:14:58.754Z,100756.78
2022-12-13T03:16:09.669Z,100761.91
2022-12-13T03:17:18.129Z,100768.78
2022-12-13T03:18:22.424Z,100753.59
2022-12-13T03:19:26.042Z,100762.50
2022-12-13T03:20:29.554Z,100765.22
2022-12-13T03:21:44.081Z,100766.81
2022-12-13T03:22:50.922Z,100766.81
2022-12-13T03:23:54.585Z,100758.13
2022-12-13T03:24:56.808Z,100763.22
2022-12-13T03:26:06.209Z,100753.75
2022-12-13T03:27:09.397Z,100756.47
2022-12-13T03:28:12.715Z,100754.66
2022-12-13T03:29:24.637Z,100756.25
2022-12-13T03:30:28.214Z,100756.13
2022-12-13T03:31:32.103Z,100757.78
2022-12-13T03:32:35.737Z,100761.97
2022-12-13T03:33:39.710Z,100749.63
2022-12-13T03:34:43.282Z,100755.59
2022-12-13T03:35:48.234Z,100752.84
2022-12-13T03:36:50.494Z,100756.28
2022-12-13T03:37:53.950Z,100757.97
2022-12-13T03:38:57.607Z,100752.63
2022-12-13T03:40:00.037Z,100756.78
2022-12-13T03:41:05.644Z,100754.16
2022-12-13T03:42:07.915Z,100753.25
2022-12-13T03:43:11.189Z,100755.84
2022-12-13T03:44:13.986Z,100758.47
2022-12-13T03:45:18.882Z,100752.50
2022-12-13T03:46:21.079Z,100750.63
2022-12-13T03:47:24.282Z,100747.16
2022-12-13T03:48:28.273Z,100753.34
2022-12-13T03:49:35.752Z,100748.25
2022-12-13T03:50:38.109Z,100739.69
2022-12-13T03:51:41.765Z,100750.13
2022-12-13T03:52:44.434Z,100743.34
2022-12-13T03:53:48.143Z,100741.81
2022-12-13T03:54:50.362Z,100741.91
2022-12-13T03:55:53.914Z,100739.41
2022-12-13T03:56:56.097Z,100746.53
2022-12-13T03:58:03.232Z,100740.56
2022-12-13T03:59:09.411Z,100734.13
2022-12-13T04:00:13.265Z,100742.56
2022-12-13T04:01:18.226Z,100736.63
2022-12-13T04:02:30.671Z,100740.19
2022-12-13T04:03:36.921Z,100736.84
2022-12-13T04:04:39.135Z,100743.16
2022-12-13T04:05:42.563Z,100741.47
2022-12-13T04:06:45.803Z,100733.84
2022-12-13T04:07:48.728Z,100740.72
2022-12-13T04:08:52.684Z,100744.31
2022-12-13T04:09:54.977Z,100740.84
2022-12-13T04:10:58.257Z,100741.69
2022-12-13T04:12:18.776Z,100730.53
2022-12-13T04:13:32.981Z,100738.97
2022-12-13T04:14:36.302Z,100740.72
2022-12-13T04:15:39.325Z,100746.78
2022-12-13T04:16:42.560Z,100733.63
2022-12-13T04:17:44.688Z,100736.97
2022-12-13T04:18:55.772Z,100731.75
2022-12-13T04:19:57.906Z,100741.13
2022-12-13T04:21:01.068Z,100734.97
2022-12-13T04:22:03.263Z,100740.09
2022-12-13T04:23:10.171Z,100734.75
2022-12-13T04:24:13.966Z,100739.00
2022-12-13T04:25:16.587Z,100738.81
2022-12-13T04:26:20.633Z,100743.19
2022-12-13T04:27:22.827Z,100737.72
2022-12-13T04:28:26.056Z,100733.25
2022-12-13T04:29:34.107Z,100736.56
2022-12-13T04:30:38.440Z,100731.13
2022-12-13T04:31:41.898Z,100734.47
2022-12-13T04:32:44.212Z,100737.88
2022-12-13T04:33:47.415Z,100730.78
2022-12-13T04:34:50.950Z,100734.97
2022-12-13T04:35:54.231Z,100736.59
2022-12-13T04:36:56.445Z,100737.22
2022-12-13T04:37:59.988Z,100744.00
2022-12-13T04:39:02.725Z,100742.09
2022-12-13T04:40:07.228Z,100737.59
2022-12-13T04:41:15.514Z,100733.81
2022-12-13T04:42:18.713Z,100737.84
2022-12-13T04:43:22.178Z,100735.97
2022-12-13T04:44:28.155Z,100730.63
2022-12-13T04:45:33.310Z,100733.84
2022-12-13T04:46:35.519Z,100731.94
2022-12-13T04:47:38.723Z,100737.91
2022-12-13T04:48:40.863Z,100736.81
2022-12-13T04:49:44.009Z,100732.31
2022-12-13T04:50:47.685Z,100723.44
2022-12-13T04:51:52.735Z,100726.75
2022-12-13T04:52:59.187Z,100728.31
2022-12-13T04:54:23.555Z,100722.97
2022-12-13T04:55:24.580Z,100727.94
2022-12-13T04:56:26.705Z,100728.53
2022-12-13T04:57:29.812Z,100722.34
2022-12-13T04:58:32.421Z,100731.88
2022-12-13T04:59:35.788Z,100729.16
2022-12-13T05:00:39.943Z,100731.66
2022-12-13T05:01:47.601Z,100727.25
2022-12-13T05:02:49.936Z,100727.13
2022-12-13T05:03:53.291Z,100724.41
2022-12-13T05:04:55.460Z,100725.94
2022-12-13T05:06:00.828Z,100723.44
2022-12-13T05:07:03.728Z,100727.63
2022-12-13T05:08:07.122Z,100722.16
2022-12-13T05:09:11.323Z,100723.00
2022-12-13T05:10:34.129Z,100725.59
2022-12-13T05:11:38.896Z,100723.72
2022-12-13T05:12:48.182Z,100727.13
2022-12-13T05:13:51.433Z,100729.63
2022-12-13T05:14:54.044Z,100732.03
2022-12-13T05:15:57.757Z,100729.41
2022-12-13T05:17:00.130Z,100729.31
2022-12-13T05:18:09.786Z,100736.31
2022-12-13T05:19:13.965Z,100730.00
2022-12-13T05:20:16.298Z,100726.31
2022-12-13T05:21:20.874Z,100731.44
2022-12-13T05:22:23.107Z,100727.84
2022-12-13T05:23:26.349Z,100738.22
2022-12-13T05:24:28.723Z,100726.69
2022-12-13T05:25:32.021Z,100723.09
2022-12-13T05:26:35.267Z,100728.25
2022-12-13T05:27:38.520Z,100724.66
2022-12-13T05:28:40.683Z,100730.59
2022-12-13T05:29:43.901Z,100723.47
2022-12-13T05:30:46.124Z,100721.69
2022-12-13T05:31:49.576Z,100720.88
2022-12-13T05:32:52.848Z,100716.44
2022-12-13T05:33:55.162Z,100714.69
2022-12-13T05:35:05.078Z,100718.13
2022-12-13T05:36:08.168Z,100714.56
2022-12-13T05:37:12.770Z,100718.00
2022-12-13T05:38:15.513Z,100715.28
2022-12-13T05:39:29.432Z,100713.50
2022-12-13T05:40:32.659Z,100723.72
2022-12-13T05:41:38.007Z,100713.25
2022-12-13T05:42:40.166Z,100720.13
2022-12-13T05:43:43.904Z,100718.22
2022-12-13T05:44:46.250Z,100720.97
2022-12-13T05:45:49.585Z,100723.47
2022-12-13T05:46:51.815Z,100721.81
2022-12-13T05:47:55.138Z,100718.22
2022-12-13T05:48:57.258Z,100725.25
2022-12-13T05:50:00.719Z,100722.50
2022-12-13T05:51:11.080Z,100721.69
2022-12-13T05:52:19.045Z,100721.69
2022-12-13T05:53:30.858Z,100725.13
2022-12-13T05:54:34.459Z,100721.69
2022-12-13T05:55:38.813Z,100722.50
2022-12-13T05:56:41.029Z,100727.72
2022-12-13T05:57:50.379Z,100721.56
2022-12-13T05:58:54.416Z,100726.81
2022-12-13T05:59:58.827Z,100723.22
2022-12-13T06:01:06.759Z,100723.22
2022-12-13T06:02:10.024Z,100723.94
2022-12-13T06:03:12.464Z,100715.97
2022-12-13T06:04:22.347Z,100715.00
2022-12-13T06:05:26.204Z,100717.53
2022-12-13T06:06:30.156Z,100716.56
2022-12-13T06:07:33.977Z,100712.28
2022-12-13T06:08:38.135Z,100717.16
2022-12-13T06:09:40.373Z,100707.53
2022-12-13T06:10:43.572Z,100716.06
2022-12-13T06:11:45.738Z,100715.25
2022-12-13T06:12:48.933Z,100715.13
2022-12-13T06:13:52.330Z,100711.53
2022-12-13T06:15:04.809Z,100719.28
2022-12-13T06:16:25.435Z,100714.88
2022-12-13T06:17:31.027Z,100715.59
2022-12-13T06:18:35.774Z,100721.16
2022-12-13T06:19:39.042Z,100716.53
2022-12-13T06:20:41.282Z,100712.25
2022-12-13T06:21:46.433Z,100718.34
2022-12-13T06:22:51.161Z,100715.00
2022-12-13T06:23:56.461Z,100726.31
2022-12-13T06:25:01.577Z,100719.41
2022-12-13T06:26:05.197Z,100714.28
2022-12-13T06:27:08.351Z,100712.63
2022-12-13T06:28:11.522Z,100719.66
2022-12-13T06:29:24.540Z,100715.38
2022-12-13T06:30:28.488Z,100725.94
2022-12-13T06:31:30.628Z,100720.03
2022-12-13T06:32:33.826Z,100720.94
2022-12-13T06:33:36.719Z,100722.84
2022-12-13T06:34:39.928Z,100719.56
2022-12-13T06:35:42.344Z,100719.66
2022-12-13T06:36:45.492Z,100719.75
2022-12-13T06:37:54.414Z,100725.13
2022-12-13T06:39:05.186Z,100727.03
2022-12-13T06:40:09.336Z,100723.72
2022-12-13T06:41:17.186Z,100729.75
2022-12-13T06:42:21.852Z,100720.25
2022-12-13T06:43:24.599Z,100724.66
2022-12-13T06:44:27.964Z,100724.66
2022-12-13T06:45:31.115Z,100726.31
2022-12-13T06:46:34.492Z,100711.56
2022-12-13T06:47:37.857Z,100722.03
2022-12-13T06:48:40.701Z,100715.88
2022-12-13T06:49:44.808Z,100651.81
2022-12-13T06:50:48.673Z,100724.53
2022-12-13T06:51:51.890Z,100722.03
2022-12-13T06:52:56.598Z,100721.09
2022-12-13T06:54:00.935Z,100732.38
2022-12-13T06:55:04.573Z,100722.53
2022-12-13T06:56:09.702Z,100728.09
2022-12-13T06:57:12.927Z,100723.00
2022-12-13T06:58:16.114Z,100725.38
2022-12-13T06:59:19.340Z,100727.84
2022-12-13T07:00:24.939Z,100735.59
2022-12-13T07:01:36.989Z,100729.41
2022-12-13T07:02:40.156Z,100733.69
2022-12-13T07:03:43.612Z,100729.28
2022-12-13T07:04:46.866Z,100738.66
2022-12-13T07:05:52.442Z,100734.16
2022-12-13T07:07:01.401Z,100735.72
2022-12-13T07:08:07.440Z,100731.28
2022-12-13T07:09:10.728Z,100736.31
2022-12-13T07:10:22.202Z,100734.38
2022-12-13T07:11:28.993Z,100740.34
2022-12-13T07:12:32.881Z,100731.56
2022-12-13T07:13:36.060Z,100732.22
2022-12-13T07:14:41.014Z,100735.56
2022-12-13T07:15:44.657Z,100731.66
2022-12-13T07:16:47.899Z,100735.31
2022-12-13T07:17:51.823Z,100734.38
2022-12-13T07:18:54.542Z,100725.09
2022-12-13T07:20:09.259Z,100740.34
2022-12-13T07:21:21.655Z,100746.25
2022-12-13T07:22:25.622Z,100747.94
2022-12-13T07:23:30.420Z,100743.53
2022-12-13T07:24:33.663Z,100741.75
2022-12-13T07:25:36.991Z,100743.41
2022-12-13T07:26:39.225Z,100738.19
2022-12-13T07:27:44.743Z,100746.72
2022-12-13T07:28:53.059Z,100749.34
2022-12-13T07:29:58.201Z,100743.28
2022-12-13T07:31:02.471Z,100744.81
2022-12-13T07:32:06.038Z,100751.03
2022-12-13T07:33:08.621Z,100749.00
2022-12-13T07:34:15.613Z,100746.25
2022-12-13T07:35:19.064Z,100748.75
2022-12-13T07:36:24.358Z,100748.75
2022-12-13T07:37:30.060Z,100739.13
2022-12-13T07:38:35.634Z,100747.66
2022-12-13T07:39:39.011Z,100745.75
2022-12-13T07:40:42.396Z,100745.75
2022-12-13T07:41:45.599Z,100741.38
2022-12-13T07:42:51.149Z,100747.44
2022-12-13T07:43:56.073Z,100749.09
2022-12-13T07:44:59.493Z,100749.09
2022-12-13T07:46:04.204Z,100756.81
2022-12-13T07:47:07.461Z,100746.34
2022-12-13T07:48:10.677Z,100754.06
2022-12-13T07:49:13.889Z,100750.53
2022-12-13T07:50:24.326Z,100759.06
2022-12-13T07:51:28.806Z,100763.25
2022-12-13T07:52:31.975Z,100756.22
2022-12-13T07:53:36.804Z,100759.66
2022-12-13T07:54:40.237Z,100760.50
2022-12-13T07:55:43.469Z,100757.88
2022-12-13T07:56:46.685Z,100763.00
2022-12-13T07:57:49.829Z,100763.00
2022-12-13T07:58:53.365Z,100751.94
2022-12-13T07:59:55.614Z,100760.97
2022-12-13T08:01:01.335Z,100756.56
2022-12-13T08:02:04.672Z,100759.06
2022-12-13T08:03:12.153Z,100765.00
2022-12-13T08:04:27.528Z,100762.13
2022-12-13T08:05:38.337Z,100758.56
2022-12-13T08:06:42.418Z,100766.28
2022-12-13T08:07:44.577Z,100762.59
2022-12-13T08:08:51.206Z,100766.06
2022-12-13T08:09:55.373Z,100758.06
2022-12-13T08:11:02.394Z,100761.50
2022-12-13T08:12:06.415Z,100762.34
2022-12-13T08:13:09.722Z,100764.84
2022-12-13T08:14:12.952Z,100755.47
2022-12-13T08:15:16.296Z,100748.66
2022-12-13T08:16:27.350Z,100764.59
2022-12-13T08:17:32.305Z,100758.28
2022-12-13T08:18:34.538Z,100754.22
2022-12-13T08:19:37.701Z,100758.03
2022-12-13T08:20:40.876Z,100761.34
2022-12-13T08:22:01.488Z,100763.84
2022-12-13T08:23:05.264Z,100761.94
2022-12-13T08:24:15.466Z,100759.31
2022-12-13T08:25:19.257Z,100736.34
2022-12-13T08:26:25.017Z,100758.94
2022-12-13T08:27:28.522Z,100756.78
2022-12-13T08:28:32.909Z,100759.25
2022-12-13T08:29:36.569Z,100749.16
2022-12-13T08:30:39.779Z,100757.09
2022-12-13T08:31:43.000Z,100746.03
2022-12-13T08:32:46.289Z,100747.31
2022-12-13T08:33:49.675Z,100757.44
2022-12-13T08:34:52.855Z,100757.16
2022-12-13T08:35:55.031Z,100750.97
2022-12-13T08:37:02.001Z,100743.81
2022-12-13T08:38:06.359Z,100759.16
2022-12-13T08:39:11.007Z,100750.31
2022-12-13T08:40:14.246Z,100742.34
2022-12-13T08:41:17.462Z,100743.31
2022-12-13T08:42:20.719Z,100748.28
2022-12-13T08:43:24.865Z,100754.25
2022-12-13T08:44:28.499Z,100748.03
2022-12-13T08:45:32.214Z,100747.09
2022-12-13T08:46:35.563Z,100750.41
2022-12-13T08:47:41.803Z,100745.84
2022-12-13T08:48:45.474Z,100743.13
2022-12-13T08:49:47.906Z,100742.03
2022-12-13T08:50:51.342Z,100739.41
2022-12-13T08:51:54.469Z,100740.97
2022-12-13T08:52:57.756Z,100739.13
2022-12-13T08:54:10.461Z,100740.81
2022-12-13T08:55:18.990Z,100738.88
2022-12-13T08:56:24.386Z,100733.63
2022-12-13T08:57:27.568Z,100739.59
2022-12-13T08:58:31.463Z,100731.72
2022-12-13T08:59:34.608Z,100736.97
2022-12-13T09:00:38.530Z,100736.03
2022-12-13T09:01:41.827Z,100715.97
2022-12-13T09:02:45.304Z,100726.47
2022-12-13T09:03:47.597Z,100732.81
2022-12-13T09:04:50.762Z,100734.47
2022-12-13T09:05:53.921Z,100741.63
2022-12-13T09:06:57.207Z,100746.06
2022-12-13T09:08:24.030Z,100749.63
2022-12-13T09:09:29.321Z,100746.28
2022-12-13T09:10:38.470Z,100751.53
2022-12-13T09:11:42.033Z,100753.22
2022-12-13T09:12:45.214Z,100765.38
2022-12-13T09:13:48.642Z,100768.81
2022-12-13T09:14:51.821Z,100765.09
2022-12-13T09:15:55.066Z,100752.84
2022-12-13T09:17:05.095Z,100749.13
2022-12-13T09:18:08.353Z,100758.53
2022-12-13T09:19:25.194Z,100752.44
2022-12-13T09:20:30.222Z,100757.88
2022-12-13T09:21:33.745Z,100756.66
2022-12-13T09:22:36.994Z,100757.22
2022-12-13T09:23:48.468Z,100755.06
2022-12-13T09:24:51.841Z,100757.28
2022-12-13T09:26:05.546Z,100758.69
2022-12-13T09:27:27.532Z,100751.53
2022-12-13T09:28:31.942Z,100755.53
2022-12-13T09:29:36.558Z,100754.44
2022-12-13T09:30:40.597Z,100755.84
2022-12-13T09:31:48.308Z,100760.72
2022-12-13T09:32:57.401Z,100760.44
2022-12-13T09:34:00.624Z,100766.25
2022-12-13T09:35:05.303Z,100757.28
2022-12-13T09:36:11.765Z,100754.66
2022-12-13T09:37:14.980Z,100757.72
2022-12-13T09:38:26.436Z,100756.63
2022-12-13T09:39:29.766Z,100753.88
2022-12-13T09:40:37.857Z,100753.88
2022-12-13T09:41:47.198Z,100757.19
2022-12-13T09:43:11.856Z,100752.66
2022-12-13T09:44:30.997Z,100756.91
2022-12-13T09:45:42.981Z,100737.41
2022-12-13T09:46:48.532Z,100739.75
2022-12-13T09:47:53.872Z,100741.72
2022-12-13T09:49:13.424Z,100740.63
2022-12-13T09:50:25.652Z,100743.00
2022-12-13T09:51:39.503Z,100745.34
2022-12-13T09:52:47.507Z,100740.81
2022-12-13T09:53:54.349Z,100751.03
2022-12-13T09:54:59.524Z,100737.75
2022-12-13T09:56:10.049Z,100740.97
2022-12-13T09:57:31.133Z,100739.03
2022-12-13T09:58:37.282Z,100744.97
2022-12-13T09:59:42.823Z,100742.22
2022-12-13T10:00:48.431Z,100740.41
2022-12-13T10:01:51.959Z,100739.31
2022-12-13T10:02:58.243Z,100738.34
2022-12-13T10:04:02.290Z,100728.81
2022-12-13T10:05:22.874Z,100739.03
2022-12-13T10:06:31.487Z,100738.19
2022-12-13T10:07:34.692Z,100735.44
2022-12-13T10:08:44.690Z,100740.03
2022-12-13T10:09:48.696Z,100729.22
2022-12-13T10:10:53.970Z,100728.25
2022-12-13T10:12:00.565Z,100736.97
2022-12-13T10:13:17.830Z,100721.59
2022-12-13T10:14:27.555Z,100732.56
2022-12-13T10:15:34.411Z,100737.69
2022-12-13T10:16:46.128Z,100739.31
2022-12-13T10:17:51.952Z,100726.59
2022-12-13T10:18:59.144Z,100732.97
2022-12-13T10:20:04.552Z,100732.97
2022-12-13T10:21:12.830Z,100730.22
2022-12-13T10:22:17.989Z,100721.91
2022-12-13T10:23:38.543Z,100730.06
2022-12-13T10:24:53.073Z,100726.47
2022-12-13T10:26:02.937Z,100728.00
2022-12-13T10:27:13.687Z,100720.38
2022-12-13T10:28:19.832Z,100727.72
2022-12-13T10:29:23.198Z,100736.31
2022-12-13T10:30:29.173Z,100732.69
2022-12-13T10:31:41.581Z,100733.41
2022-12-13T10:32:51.131Z,100729.78
2022-12-13T10:33:58.445Z,100731.47
2022-12-13T10:35:02.152Z,100715.28
2022-12-13T10:36:31.052Z,100736.31
2022-12-13T10:37:34.309Z,100731.75
2022-12-13T10:38:40.144Z,100729.81
2022-12-13T10:39:44.633Z,100725.94
2022-12-13T10:40:49.182Z,100734.09
2022-12-13T10:42:04.014Z,100723.59
2022-12-13T10:43:09.070Z,100728.00
2022-12-13T10:44:25.364Z,100723.03
2022-12-13T10:45:28.825Z,100723.88
2022-12-13T10:46:38.358Z,100717.78
2022-12-13T10:47:45.168Z,100720.53
2022-12-13T10:48:50.481Z,100717.06
2022-12-13T10:49:58.775Z,100711.16
2022-12-13T10:51:05.360Z,100710.16
2022-12-13T10:52:31.611Z,100697.16
2022-12-13T10:53:40.280Z,100699.94
2022-12-13T10:54:50.720Z,100701.88
2022-12-13T10:56:02.258Z,100699.25
2022-12-13T10:57:06.557Z,100703.38
2022-12-13T10:58:20.952Z,100696.47
2022-12-13T10:59:33.870Z,100690.22
2022-12-13T11:00:41.068Z,100696.31
2022-12-13T11:01:44.325Z,100701.44
2022-12-13T11:02:55.320Z,100699.66
2022-12-13T11:04:02.126Z,100692.47
2022-12-13T11:05:25.178Z,100689.69
2022-12-13T11:06:30.378Z,100693.81
2022-12-13T11:07:34.854Z,100697.16
2022-12-13T11:08:38.785Z,100687.34
2022-12-13T11:09:42.009Z,100689.81
2022-12-13T11:10:45.640Z,100692.31
2022-12-13T11:11:57.990Z,100689.53
2022-12-13T11:13:04.399Z,100690.38
2022-12-13T11:14:14.935Z,100678.72
2022-12-13T11:15:26.539Z,100669.34
2022-12-13T11:16:35.350Z,100669.63
2022-12-13T11:17:48.898Z,100676.25
2022-12-13T11:18:55.340Z,100681.25
2022-12-13T11:20:01.842Z,100680.13
2022-12-13T11:21:07.767Z,100670.44
2022-12-13T11:22:20.046Z,100685.25
2022-12-13T11:23:29.791Z,100684.16
2022-12-13T11:24:35.410Z,100683.16
2022-12-13T11:25:42.451Z,100680.53
2022-12-13T11:26:53.780Z,100677.06
2022-12-13T11:28:26.588Z,100676.25
2022-12-13T11:30:02.987Z,100683.16
2022-12-13T11:31:14.519Z,100673.78
2022-12-13T11:32:28.449Z,100670.44
2022-12-13T11:33:48.031Z,100677.91
2022-12-13T11:35:00.086Z,100675.28
2022-12-13T11:36:16.289Z,100672.66
2022-12-13T11:37:29.918Z,100669.03
2022-12-13T11:38:37.489Z,100663.25
2022-12-13T11:39:46.780Z,100668.63
2022-12-13T11:40:54.292Z,100656.44
2022-12-13T11:42:02.814Z,100658.81
2022-12-13T11:43:13.260Z,100664.06
2022-12-13T11:44:22.896Z,100660.59
2022-12-13T11:45:31.876Z,100660.44
2022-12-13T11:46:41.834Z,100660.31
2022-12-13T11:47:49.369Z,100657.53
2022-12-13T11:48:57.861Z,100655.88
2022-12-13T11:50:04.559Z,100657.53
2022-12-13T11:51:11.493Z,100648.81
2022-12-13T11:52:20.061Z,100651.03
2022-12-13T11:53:31.351Z,100644.38
2022-12-13T11:54:43.980Z,100647.41
2022-12-13T11:55:53.499Z,100655.31
2022-12-13T11:57:00.224Z,100646.72
2022-12-13T11:58:16.438Z,100642.59
2022-12-13T11:59:29.713Z,100658.78
2022-12-13T12:00:37.077Z,100657.94
2022-12-13T12:01:47.375Z,100658.47
2022-12-13T12:03:00.063Z,100650.44
2022-12-13T12:04:13.853Z,100656.56
2022-12-13T12:05:28.403Z,100655.41
2022-12-13T12:06:38.631Z,100655.41
2022-12-13T12:08:12.685Z,100645.88
2022-12-13T12:09:15.977Z,100646.88
2022-12-13T12:10:28.243Z,100645.19
2022-12-13T12:11:36.853Z,100644.34
2022-12-13T12:12:43.944Z,100636.47
2022-12-13T12:13:52.722Z,100636.59
2022-12-13T12:15:15.082Z,100638.28
2022-12-13T12:16:28.458Z,100639.94
2022-12-13T12:17:42.045Z,100632.31
2022-12-13T12:18:45.878Z,100638.97
2022-12-13T12:19:53.660Z,100638.13
2022-12-13T12:21:07.341Z,100644.34
2022-12-13T12:22:24.444Z,100639.94
2022-12-13T12:23:46.233Z,100628.72
2022-12-13T12:25:04.085Z,100624.97
2022-12-13T12:26:10.253Z,100626.63
2022-12-13T12:27:26.098Z,100624.84
2022-12-13T12:28:44.331Z,100620.25
2022-12-13T12:30:03.913Z,100612.28
2022-12-13T12:31:17.050Z,100630.50
2022-12-13T12:32:31.233Z,100627.03
2022-12-13T12:33:46.334Z,100621.63
2022-12-13T12:34:57.548Z,100623.28
2022-12-13T12:36:15.419Z,100627.56
2022-12-13T12:37:25.918Z,100624.94
2022-12-13T12:38:58.991Z,100627.56
2022-12-13T12:40:46.200Z,100625.22
2022-12-13T12:42:17.413Z,100614.59
2022-12-13T12:43:27.798Z,100616.09
2022-12-13T12:44:43.616Z,100628.84
2022-12-13T12:46:00.176Z,100623.59